LFOB/BVA METAR and TAF weather

Enter ICAO airport designator
Station Type Date Time Source
LFOB METAR 2020/07/03 13:30 UTC NOAA

LFOB 031330Z AUTO 27011KT 230V300 9999 FEW044 OVC054 20/10 Q1020 NOSIG


Station Type Date Time Source
LFOB Decoded METAR 2020/07/03 13:30 UTC NOAA

Beauvais, France (LFOB) 49-28N 002-07E 111M
Jul 03, 2020 - 09:30 AM EDT / 2020.07.03 1330 UTC
Wind: from the W (270 degrees) at 13 MPH (11 KT) (direction variable):0
Visibility: greater than 7 mile(s):0
Sky conditions: overcast
Temperature: 68 F (20 C)
Dew Point: 50 F (10 C)
Relative Humidity: 52%
Pressure (altimeter): 30.12 in. Hg (1020 hPa)
ob: LFOB 031330Z AUTO 27011KT 230V300 9999 FEW044 OVC054 20/10 Q1020 NOSIG
cycle: 13

Station Type Date Time Source
LFOB TAF 2020/07/03 12:45 UTC NOAA

TAF TAF LFOB 031100Z 0312/0412 26010KT 9999 BKN030
BECMG 0322/0401 20010KT
BECMG 0405/0407 OVC013
TEMPO 0407/0412 4000 RA BKN008

Example: see airport list